RJEO(METAR)
05/21 14:00
RJEO 210500Z 15008KT 5000 BR FEW003 BKN005 BKN007 15/13 Q1010 RMK
A2982=
戻る
トップページへ戻る
IMOC Co,.Ltd.